Time;durP1;ratioP1;P1;durP2;ratioP2;P2;SDS_P1;SDS_P2;PMS_P1;PMS_P2;Temp;Humidity;BMP_temperature;BMP_pressure;BME280_temperature;BME280_humidity;BME280_pressure;Samples;Min_cycle;Max_cycle;Signal;HPM_P1;HPM_P2
2022/04/12 00:00:55;;;;;;;9.20;4.28;;;;;;;9.53;50.10;101056.00;5016017;28;20091;-79
2022/04/12 00:03:21;;;;;;;6.80;4.10;;;;;;;9.52;49.97;101056.91;5033582;28;20393;-79
2022/04/12 00:05:46;;;;;;;7.97;3.95;;;;;;;9.49;50.06;101054.28;5002620;28;20543;-80
2022/04/12 00:08:12;;;;;;;7.45;4.20;;;;;;;9.51;50.22;101041.06;4986483;28;20030;-79
2022/04/12 00:10:37;;;;;;;8.75;4.60;;;;;;;9.48;50.03;101032.28;5037916;28;20099;-80
2022/04/12 00:13:03;;;;;;;10.70;4.07;;;;;;;9.47;50.48;101027.91;5006228;28;20635;-79
2022/04/12 00:15:29;;;;;;;9.00;4.03;;;;;;;9.45;50.19;101029.69;5032205;28;20087;-79
2022/04/12 00:20:39;;;;;;;7.22;4.50;;;;;;;9.40;50.63;101025.38;5034652;28;20045;-80
2022/04/12 00:23:06;;;;;;;7.30;4.32;;;;;;;9.35;50.51;101020.13;5030103;28;20111;-80
2022/04/12 00:25:31;;;;;;;8.68;4.10;;;;;;;9.34;50.55;101022.78;5020857;28;20032;-80
2022/04/12 00:27:59;;;;;;;12.38;4.63;;;;;;;9.31;50.50;101022.84;5031659;28;20025;-80
2022/04/12 00:30:26;;;;;;;9.07;4.60;;;;;;;9.29;50.78;101024.63;5033082;28;20071;-80
2022/04/12 00:32:52;;;;;;;7.53;4.32;;;;;;;9.26;50.95;101021.13;5031536;28;20026;-80
2022/04/12 00:35:20;;;;;;;11.48;4.43;;;;;;;9.25;50.97;101015.88;5028830;28;20132;-80
2022/04/12 00:37:47;;;;;;;7.57;4.35;;;;;;;9.23;50.97;101020.31;5029908;28;20026;-80
2022/04/12 00:40:14;;;;;;;7.30;4.20;;;;;;;9.20;51.08;101015.94;5051337;28;20033;-80
2022/04/12 00:42:40;;;;;;;9.48;3.97;;;;;;;9.16;51.41;101008.94;5042588;28;20056;-80
2022/04/12 00:45:06;;;;;;;10.25;3.88;;;;;;;9.12;51.11;101023.06;5015364;28;20475;-80
2022/04/12 00:47:32;;;;;;;7.90;3.78;;;;;;;9.10;51.38;101022.25;5014422;28;20054;-80
2022/04/12 00:49:58;;;;;;;6.18;3.83;;;;;;;9.10;50.79;101019.59;5016835;28;20025;-80
2022/04/12 00:52:25;;;;;;;5.20;3.58;;;;;;;9.08;51.11;101023.16;5032500;28;20531;-80
2022/04/12 00:54:53;;;;;;;8.00;4.20;;;;;;;9.03;51.30;101020.56;5031159;28;20369;-80
2022/04/12 00:57:18;;;;;;;8.20;3.60;;;;;;;9.03;51.15;101026.72;5032257;28;20543;-80
2022/04/12 00:59:45;;;;;;;8.50;3.95;;;;;;;9.01;51.41;101017.94;5052628;28;20037;-80
2022/04/12 01:02:10;;;;;;;6.78;3.97;;;;;;;8.96;51.70;101025.03;5052014;28;20041;-80
2022/04/12 01:04:36;;;;;;;7.53;4.05;;;;;;;8.95;51.30;101028.59;5031167;28;20049;-80
2022/04/12 01:07:02;;;;;;;7.78;3.70;;;;;;;8.92;51.78;101033.88;5032372;28;20045;-80
2022/04/12 01:09:28;;;;;;;7.80;4.30;;;;;;;8.90;51.61;101033.06;5014453;28;20037;-80
2022/04/12 01:11:55;;;;;;;10.70;4.03;;;;;;;8.86;52.08;101023.41;5030852;28;20482;-79
2022/04/12 01:14:22;;;;;;;7.05;3.90;;;;;;;8.82;52.10;101024.31;5030835;28;20052;-79
2022/04/12 01:16:48;;;;;;;8.85;3.78;;;;;;;8.79;52.04;101014.66;5030932;28;20087;-79
2022/04/12 01:19:13;;;;;;;8.07;4.00;;;;;;;8.76;52.35;101013.84;5014336;28;20049;-80
2022/04/12 01:21:56;;;;;;;9.68;4.00;;;;;;;8.72;52.19;101012.13;5017052;28;20531;-80
2022/04/12 01:24:22;;;;;;;6.82;3.75;;;;;;;8.67;52.42;101011.31;5030698;28;20072;-80
2022/04/12 01:26:48;;;;;;;9.98;4.13;;;;;;;8.65;52.37;101015.72;5030628;28;20026;-80
2022/04/12 01:29:13;;;;;;;8.07;3.95;;;;;;;8.60;52.44;101024.59;5030860;28;20122;-80
2022/04/12 01:31:40;;;;;;;9.38;3.92;;;;;;;8.56;52.62;101014.06;5033058;28;20113;-79
2022/04/12 01:34:05;;;;;;;5.63;3.60;;;;;;;8.55;52.93;101014.94;5030267;28;20449;-79
2022/04/12 01:36:31;;;;;;;6.45;4.00;;;;;;;8.46;53.06;101001.88;5034370;28;20461;-79
2022/04/12 01:38:57;;;;;;;5.75;3.22;;;;;;;8.48;53.45;101015.91;5027830;28;20083;-80
2022/04/12 01:41:22;;;;;;;7.47;3.67;;;;;;;8.45;53.24;101013.31;5013943;28;20030;-79
2022/04/12 01:43:47;;;;;;;7.25;3.30;;;;;;;8.42;53.58;101008.94;5048608;28;20066;-79
2022/04/12 01:46:13;;;;;;;7.43;3.67;;;;;;;8.41;53.72;101001.91;5014106;28;20069;-80
2022/04/12 01:48:39;;;;;;;7.28;3.25;;;;;;;8.41;53.45;101004.56;5031408;28;20112;-78
2022/04/12 01:51:04;;;;;;;6.22;4.00;;;;;;;8.37;53.77;101008.94;5014896;28;20037;-79
2022/04/12 01:53:30;;;;;;;9.10;4.10;;;;;;;8.32;54.28;101010.75;5031051;28;20053;-79
2022/04/12 01:55:55;;;;;;;5.65;3.45;;;;;;;8.30;54.21;100999.34;5030090;28;20448;-79
2022/04/12 01:58:21;;;;;;;5.70;3.33;;;;;;;8.27;54.14;100996.72;5031195;28;20095;-78
2022/04/12 02:00:47;;;;;;;6.63;3.53;;;;;;;8.25;54.62;100987.94;5031035;28;20399;-79
2022/04/12 02:03:12;;;;;;;12.48;3.88;;;;;;;8.25;54.34;100985.31;5031240;28;20116;-79
2022/04/12 02:05:39;;;;;;;5.22;3.40;;;;;;;8.24;54.36;100980.06;5011370;28;20040;-79
2022/04/12 02:08:06;;;;;;;7.88;4.20;;;;;;;8.24;54.58;100982.72;5029506;28;20140;-79
2022/04/12 02:10:34;;;;;;;7.40;4.28;;;;;;;8.23;54.02;100984.44;5013107;28;20048;-79
2022/04/12 02:13:00;;;;;;;6.85;3.60;;;;;;;8.18;54.38;100995.06;5027737;28;20049;-79
2022/04/12 02:15:25;;;;;;;7.30;3.38;;;;;;;8.18;54.74;101000.34;5015977;28;20117;-79
2022/04/12 02:17:51;;;;;;;7.13;3.53;;;;;;;8.14;54.38;100998.63;5032459;28;20072;-79
2022/04/12 02:20:16;;;;;;;6.28;3.95;;;;;;;8.09;54.99;100986.38;5029420;28;20505;-80
2022/04/12 02:22:42;;;;;;;9.77;4.15;;;;;;;8.11;54.61;100995.13;5027807;28;20045;-80
2022/04/12 02:25:08;;;;;;;8.50;3.78;;;;;;;8.09;54.68;100991.66;5029557;28;20482;-80
2022/04/12 02:27:34;;;;;;;7.63;4.35;;;;;;;8.07;55.15;100996.06;5030419;28;20044;-80
2022/04/12 02:29:59;;;;;;;7.60;4.30;;;;;;;8.04;55.33;100993.44;5030394;28;20025;-79
2022/04/12 02:32:25;;;;;;;5.80;3.58;;;;;;;8.03;55.50;101007.50;5029257;28;20045;-80
2022/04/12 02:34:50;;;;;;;6.75;3.95;;;;;;;8.00;55.50;100999.63;5012778;28;20037;-80
2022/04/12 02:37:16;;;;;;;6.43;3.85;;;;;;;7.95;54.94;100997.91;5032420;28;20147;-79
2022/04/12 02:39:41;;;;;;;7.75;3.90;;;;;;;7.95;55.37;100990.00;4982330;28;20067;-80
2022/04/12 02:42:07;;;;;;;6.40;3.55;;;;;;;7.95;54.78;100983.84;5030968;28;20095;-79
2022/04/12 02:44:32;;;;;;;8.02;4.25;;;;;;;7.92;55.76;100984.75;5031044;28;20337;-84
2022/04/12 02:46:58;;;;;;;12.25;4.38;;;;;;;7.88;55.64;100985.66;5030762;28;20485;-85
2022/04/12 02:49:23;;;;;;;8.40;4.28;;;;;;;7.86;56.25;100984.81;5018589;28;20038;-85
2022/04/12 02:51:51;;;;;;;8.25;4.13;;;;;;;7.83;55.64;100978.69;5029673;28;20032;-85
2022/04/12 02:54:18;;;;;;;10.00;4.15;;;;;;;7.81;55.88;100972.53;5016423;28;20099;-85
2022/04/12 02:56:43;;;;;;;7.15;3.60;;;;;;;7.78;55.73;100973.44;5030763;28;20575;-85
2022/04/12 02:59:09;;;;;;;8.95;4.10;;;;;;;7.73;56.45;100973.47;5012522;28;20190;-85
2022/04/12 03:01:34;;;;;;;7.85;3.85;;;;;;;7.72;56.21;100961.19;4996650;28;20030;-85
2022/04/12 03:04:00;;;;;;;10.38;4.30;;;;;;;7.67;56.75;100960.34;5028940;28;20031;-85
2022/04/12 03:06:26;;;;;;;8.45;4.78;;;;;;;7.64;57.45;100964.75;5030994;28;20024;-84
2022/04/12 03:08:51;;;;;;;6.70;4.13;;;;;;;7.62;56.90;100962.16;5029009;28;20049;-85
2022/04/12 03:11:16;;;;;;;10.98;4.32;;;;;;;7.61;57.37;100956.88;5029155;28;20029;-84
2022/04/12 03:13:42;;;;;;;8.02;4.13;;;;;;;7.59;57.52;100964.81;5032207;28;20037;-85
2022/04/12 03:16:07;;;;;;;10.63;4.25;;;;;;;7.57;57.55;100956.03;5033035;28;20473;-84
2022/04/12 03:18:33;;;;;;;9.63;4.32;;;;;;;7.53;57.35;100949.03;5033258;28;20116;-85
2022/04/12 03:20:58;;;;;;;9.68;4.53;;;;;;;7.52;57.03;100952.56;5037259;28;20088;-85
2022/04/12 03:23:24;;;;;;;7.30;4.93;;;;;;;7.51;57.36;100945.53;5031846;28;20489;-84
2022/04/12 03:25:52;;;;;;;8.82;4.20;;;;;;;7.50;57.01;100941.16;5032946;28;20030;-84
2022/04/12 03:28:18;;;;;;;15.15;4.65;;;;;;;7.48;57.58;100940.28;5033003;28;20033;-85
2022/04/12 03:30:44;;;;;;;7.80;4.25;;;;;;;7.47;57.77;100930.66;5034380;28;20397;-84
2022/04/12 03:33:09;;;;;;;9.57;4.50;;;;;;;7.47;57.82;100930.66;5032764;28;20127;-85
2022/04/12 03:35:35;;;;;;;8.90;5.00;;;;;;;7.46;58.12;100937.66;5016029;28;20128;-85
2022/04/12 03:38:01;;;;;;;10.73;4.90;;;;;;;7.44;57.72;100938.56;5036689;28;20033;-84
2022/04/12 03:40:33;;;;;;;10.10;4.43;;;;;;;7.42;58.01;100937.69;5049594;28;20029;-85
2022/04/12 03:43:01;;;;;;;10.25;4.53;;;;;;;7.41;57.80;100936.81;5034893;28;20057;-85
2022/04/12 03:45:27;;;;;;;9.13;4.53;;;;;;;7.40;58.42;100936.84;5034187;28;20603;-84
2022/04/12 03:47:52;;;;;;;7.60;4.35;;;;;;;7.38;58.36;100941.25;5032760;28;20068;-84
2022/04/12 03:50:18;;;;;;;13.07;5.30;;;;;;;7.37;58.26;100942.13;5022175;28;20399;-85
2022/04/12 03:52:43;;;;;;;7.97;4.38;;;;;;;7.35;58.36;100942.16;5018632;28;20044;-85
2022/04/12 03:55:10;;;;;;;8.48;4.53;;;;;;;7.33;58.36;100941.28;5041029;28;20069;-85
2022/04/12 03:57:36;;;;;;;9.77;4.60;;;;;;;7.29;58.97;100927.28;5016303;28;20028;-85
2022/04/12 04:00:08;;;;;;;8.98;4.90;;;;;;;7.28;59.30;100920.22;5032450;28;20033;-85
2022/04/12 04:02:35;;;;;;;7.75;4.63;;;;;;;7.24;59.19;100910.59;5021977;28;20055;-84
2022/04/12 04:05:01;;;;;;;10.15;4.70;;;;;;;7.25;58.70;100914.13;5016218;28;20045;-85
2022/04/12 04:07:27;;;;;;;10.73;4.53;;;;;;;7.26;58.64;100919.38;5034232;28;20083;-85
2022/04/12 04:09:53;;;;;;;8.68;4.63;;;;;;;7.27;59.16;100920.22;5034274;28;20072;-84
2022/04/12 04:12:20;;;;;;;13.90;5.25;;;;;;;7.28;59.67;100916.72;5032935;28;20035;-84
2022/04/12 04:14:46;;;;;;;6.43;4.28;;;;;;;7.29;58.83;100916.72;5016323;28;20462;-84
2022/04/12 04:17:12;;;;;;;21.10;5.38;;;;;;;7.32;59.42;100921.09;5033798;28;20041;-85
2022/04/12 04:19:38;;;;;;;9.23;4.72;;;;;;;7.34;59.45;100921.94;5032757;28;20041;-85
2022/04/12 04:22:04;;;;;;;9.10;4.80;;;;;;;7.39;58.91;100933.31;5032385;28;20029;-85
2022/04/12 04:24:29;;;;;;;7.53;4.75;;;;;;;7.39;59.17;100920.16;5034258;28;20401;-85
2022/04/12 04:26:55;;;;;;;7.50;4.35;;;;;;;7.39;59.50;100920.16;5032501;28;20046;-85
2022/04/12 04:29:23;;;;;;;8.52;4.85;;;;;;;7.39;59.59;100924.53;5032989;28;20041;-85
2022/04/12 04:31:50;;;;;;;10.02;4.60;;;;;;;7.38;59.78;100920.19;5016623;28;20065;-85
2022/04/12 04:34:16;;;;;;;9.75;5.00;;;;;;;7.39;59.13;100921.91;5032490;28;20037;-85
2022/04/12 04:36:41;;;;;;;9.20;5.13;;;;;;;7.40;59.51;100931.59;5024188;28;20111;-85
2022/04/12 04:39:07;;;;;;;10.80;5.15;;;;;;;7.40;59.77;100942.13;5039564;28;20516;-85
2022/04/12 04:41:32;;;;;;;9.65;4.55;;;;;;;7.38;59.32;100928.06;5016343;28;20686;-85
2022/04/12 04:43:58;;;;;;;9.27;5.18;;;;;;;7.37;59.71;100916.69;5053251;28;20049;-85
2022/04/12 04:46:24;;;;;;;9.65;4.45;;;;;;;7.37;59.90;100924.56;5052326;28;20057;-84
2022/04/12 04:48:50;;;;;;;10.70;4.63;;;;;;;7.37;59.73;100924.56;5035164;28;20059;-85
2022/04/12 04:51:15;;;;;;;9.10;5.18;;;;;;;7.36;59.98;100935.97;5053630;28;20119;-84
2022/04/12 04:53:42;;;;;;;9.45;4.78;;;;;;;7.37;59.94;100944.75;5035093;28;20033;-85
2022/04/12 04:56:08;;;;;;;9.77;5.15;;;;;;;7.38;59.62;100957.06;5035893;28;20040;-85
2022/04/12 04:58:34;;;;;;;10.48;5.00;;;;;;;7.37;60.02;100952.66;5051665;28;20054;-85
2022/04/12 05:01:00;;;;;;;9.02;5.07;;;;;;;7.37;60.00;100961.47;5053132;28;20395;-85
2022/04/12 05:03:27;;;;;;;10.13;4.93;;;;;;;7.38;59.63;100967.59;5052878;28;20045;-84
2022/04/12 05:05:53;;;;;;;7.25;4.82;;;;;;;7.39;59.96;100964.94;5035071;28;20429;-84
2022/04/12 05:08:18;;;;;;;15.23;5.13;;;;;;;7.40;60.78;100974.59;5051281;28;20128;-84
2022/04/12 05:10:44;;;;;;;9.85;5.53;;;;;;;7.40;60.13;100971.09;5035119;28;20387;-84
2022/04/12 05:13:09;;;;;;;8.75;5.18;;;;;;;7.43;59.48;100969.31;5051496;28;20044;-84
2022/04/12 05:15:35;;;;;;;12.55;5.85;;;;;;;7.42;60.14;100954.41;5038041;28;20120;-84
2022/04/12 05:18:00;;;;;;;8.60;5.13;;;;;;;7.44;60.97;100947.38;5033026;28;20037;-85
2022/04/12 05:20:26;;;;;;;11.27;5.65;;;;;;;7.46;60.27;100958.75;5031646;28;20472;-85
2022/04/12 05:22:53;;;;;;;9.68;5.00;;;;;;;7.47;61.02;100949.09;5031716;28;20464;-85
2022/04/12 05:25:18;;;;;;;10.48;5.68;;;;;;;7.50;60.45;100955.22;5014973;28;20103;-85
2022/04/12 05:27:44;;;;;;;15.10;5.60;;;;;;;7.53;60.50;100951.66;5033019;28;20047;-85
2022/04/12 05:30:16;;;;;;;12.82;5.22;;;;;;;7.57;60.94;100944.59;5030864;28;20459;-85
2022/04/12 05:32:41;;;;;;;12.70;5.22;;;;;;;7.61;60.43;100951.63;5031053;28;20179;-85
2022/04/12 05:35:08;;;;;;;10.52;5.68;;;;;;;7.63;60.45;100944.56;5014358;28;20044;-84
2022/04/12 05:37:52;;;;;;;9.68;5.22;;;;;;;7.65;60.31;100946.31;5037612;28;20025;-84
2022/04/12 05:40:19;;;;;;;12.52;5.68;;;;;;;7.66;60.50;100940.13;5049818;28;20107;-85
2022/04/12 05:42:45;;;;;;;8.25;5.00;;;;;;;7.67;60.15;100933.13;5014929;28;20038;-85
2022/04/12 05:45:12;;;;;;;14.15;5.70;;;;;;;7.66;60.27;100940.13;5014680;28;20107;-85
2022/04/12 05:47:42;;;;;;;9.73;6.25;;;;;;;7.66;61.04;100939.25;5031025;28;20063;-83
2022/04/12 05:50:08;;;;;;;7.75;4.82;;;;;;;7.65;60.29;100938.41;5031882;28;20040;-84
2022/04/12 05:52:34;;;;;;;12.45;6.35;;;;;;;7.66;60.89;100947.16;5015164;28;20463;-86
2022/04/12 05:54:59;;;;;;;10.98;5.47;;;;;;;7.69;61.00;100950.69;5015362;28;20117;-85
2022/04/12 05:57:24;;;;;;;9.85;5.93;;;;;;;7.70;60.29;100955.06;5015353;28;20500;-84
2022/04/12 05:59:50;;;;;;;14.07;5.80;;;;;;;7.71;60.59;100956.78;5031016;28;20041;-84
2022/04/12 06:02:15;;;;;;;11.88;6.10;;;;;;;7.73;61.02;100952.38;5031659;28;20030;-85
2022/04/12 06:04:41;;;;;;;14.30;6.78;;;;;;;7.78;60.56;100951.47;5036048;28;20037;-85
2022/04/12 06:07:06;;;;;;;14.60;5.93;;;;;;;7.84;60.74;100948.78;5023835;28;20515;-85
2022/04/12 06:09:32;;;;;;;15.15;5.75;;;;;;;7.94;60.29;100955.75;5022101;28;20036;-85
2022/04/12 06:11:57;;;;;;;14.05;5.75;;;;;;;8.01;60.89;100954.78;5032827;28;20159;-85
2022/04/12 06:14:23;;;;;;;15.48;6.57;;;;;;;8.04;60.36;100956.53;5032827;28;20068;-85
2022/04/12 06:16:48;;;;;;;11.18;6.10;;;;;;;8.08;60.51;100960.88;5032778;28;20044;-85
2022/04/12 06:19:13;;;;;;;12.38;5.95;;;;;;;8.11;60.81;100958.19;5014817;28;20041;-85
2022/04/12 06:21:39;;;;;;;14.43;5.97;;;;;;;8.17;60.02;100958.16;4998359;28;20694;-85
2022/04/12 06:24:05;;;;;;;12.52;5.97;;;;;;;8.27;60.36;100953.66;4998503;28;20037;-85
2022/04/12 06:26:30;;;;;;;12.63;6.10;;;;;;;8.36;60.18;100953.56;5046109;28;20029;-84
2022/04/12 06:28:56;;;;;;;12.57;6.88;;;;;;;8.45;59.47;100953.47;5034284;28;20507;-85
2022/04/12 06:31:21;;;;;;;12.13;6.38;;;;;;;8.52;59.19;100946.38;5052400;28;20037;-85
2022/04/12 06:33:47;;;;;;;9.40;5.78;;;;;;;8.61;59.85;100946.25;5052132;28;20118;-84
2022/04/12 06:36:12;;;;;;;17.25;6.18;;;;;;;8.69;59.56;100957.59;5045448;28;20477;-85
2022/04/12 06:38:38;;;;;;;10.73;5.97;;;;;;;8.74;58.64;100954.91;5031151;28;20041;-85
2022/04/12 06:41:03;;;;;;;12.35;5.95;;;;;;;8.81;59.03;100949.53;5032449;28;20121;-85
2022/04/12 06:43:29;;;;;;;13.48;6.18;;;;;;;8.87;58.53;100945.91;5014696;28;20808;-85
2022/04/12 06:45:54;;;;;;;13.23;5.93;;;;;;;8.95;58.15;100945.81;5032115;28;20096;-85
2022/04/12 06:48:20;;;;;;;11.48;6.20;;;;;;;9.02;58.05;100955.41;5030347;28;20033;-85
2022/04/12 06:50:45;;;;;;;12.52;6.13;;;;;;;9.12;58.37;100950.88;5014702;28;20425;-85
2022/04/12 06:53:11;;;;;;;11.77;6.78;;;;;;;9.22;57.60;100948.09;5030891;28;20033;-85
2022/04/12 06:55:37;;;;;;;18.60;8.48;;;;;;;9.33;58.06;100940.00;5030542;28;20446;-80
2022/04/12 06:58:02;;;;;;;11.02;6.60;;;;;;;9.45;57.93;100939.81;5029729;28;20046;-79
2022/04/12 07:00:27;;;;;;;12.05;6.70;;;;;;;9.61;57.92;100937.78;5029793;28;20033;-79
2022/04/12 07:02:54;;;;;;;13.15;5.97;;;;;;;9.71;56.68;100935.00;5030093;28;20052;-78
2022/04/12 07:05:19;;;;;;;15.48;5.65;;;;;;;9.84;56.77;100940.06;5013695;28;20116;-80
2022/04/12 07:07:45;;;;;;;12.95;6.03;;;;;;;9.97;56.60;100946.00;5030519;28;20029;-79
2022/04/12 07:10:15;;;;;;;11.98;6.13;;;;;;;10.09;57.08;100940.50;5030741;28;20041;-80
2022/04/12 07:12:41;;;;;;;14.00;6.40;;;;;;;10.24;56.40;100938.47;5029905;28;20039;-79
2022/04/12 07:15:08;;;;;;;12.40;6.35;;;;;;;10.38;55.88;100936.44;5029251;28;20032;-79
2022/04/12 07:17:34;;;;;;;11.32;6.05;;;;;;;10.52;56.13;100937.03;5029763;28;20049;-79
2022/04/12 07:20:00;;;;;;;14.48;6.20;;;;;;;10.64;54.76;100929.75;5030132;28;20143;-79
2022/04/12 07:22:25;;;;;;;11.25;6.68;;;;;;;10.74;54.92;100932.19;5029735;28;20509;-79
2022/04/12 07:24:51;;;;;;;12.82;6.63;;;;;;;10.88;55.27;100937.19;5031379;28;20045;-79
2022/04/12 07:27:17;;;;;;;11.48;6.65;;;;;;;11.03;54.29;100933.34;5032989;28;20037;-80
2022/04/12 07:29:42;;;;;;;11.98;6.55;;;;;;;11.14;54.23;100941.91;5051271;28;20037;-79
2022/04/12 07:32:08;;;;;;;10.05;6.35;;;;;;;11.26;54.12;100932.81;5050959;28;20028;-79
2022/04/12 07:34:34;;;;;;;11.20;6.88;;;;;;;11.37;53.69;100937.84;5049121;28;20504;-79
2022/04/12 07:36:59;;;;;;;18.30;7.10;;;;;;;11.49;53.41;100934.91;5022916;28;20032;-79
2022/04/12 07:39:25;;;;;;;11.27;6.13;;;;;;;11.68;54.30;100937.97;5048050;28;20037;-79
2022/04/12 07:41:52;;;;;;;14.95;7.30;;;;;;;11.80;53.45;100931.50;5045904;28;20489;-79
2022/04/12 07:44:20;;;;;;;13.93;5.57;;;;;;;11.96;52.73;100926.69;5031268;28;20045;-80
2022/04/12 07:46:45;;;;;;;10.93;5.78;;;;;;;12.07;52.74;100924.66;5029900;28;20152;-80
2022/04/12 07:49:11;;;;;;;15.73;6.15;;;;;;;12.12;52.44;100920.09;5029592;28;20133;-79
2022/04/12 07:51:38;;;;;;;13.15;6.68;;;;;;;12.21;52.30;100926.91;5029936;28;20030;-79
2022/04/12 07:54:04;;;;;;;14.30;6.07;;;;;;;12.27;51.98;100930.28;5034851;28;20071;-79
2022/04/12 07:56:34;;;;;;;11.45;5.53;;;;;;;12.37;51.24;100922.06;5049611;28;20048;-79
2022/04/12 07:59:00;;;;;;;14.13;5.90;;;;;;;12.54;50.76;100926.91;5047793;28;20060;-80
2022/04/12 08:01:26;;;;;;;14.45;5.38;;;;;;;12.69;51.64;100934.44;5034355;28;20037;-80
2022/04/12 08:03:51;;;;;;;10.27;5.78;;;;;;;12.84;51.03;100928.66;5032747;28;20034;-80
2022/04/12 08:06:17;;;;;;;14.45;5.40;;;;;;;12.97;50.64;100923.84;5032678;28;20500;-78
2022/04/12 08:08:43;;;;;;;11.10;5.53;;;;;;;13.10;50.14;100930.53;5033813;28;20064;-77
2022/04/12 08:11:09;;;;;;;10.90;6.00;;;;;;;13.22;49.75;100933.72;5032635;28;20029;-77
2022/04/12 08:13:34;;;;;;;34.13;10.18;;;;;;;13.31;50.66;100925.50;5032479;28;20041;-77
2022/04/12 08:16:00;;;;;;;14.02;5.80;;;;;;;13.36;49.94;100923.53;5048020;28;20123;-77
2022/04/12 08:18:26;;;;;;;12.68;5.32;;;;;;;13.48;49.85;100920.50;5053655;28;20045;-77
2022/04/12 08:20:53;;;;;;;11.88;5.45;;;;;;;13.64;50.17;100925.31;5035768;28;20025;-77
2022/04/12 08:23:23;;;;;;;18.20;5.47;;;;;;;13.82;50.42;100930.00;5035985;28;20040;-77
2022/04/12 08:25:49;;;;;;;10.68;4.72;;;;;;;13.98;50.32;100928.56;5053800;28;20342;-77
2022/04/12 08:28:15;;;;;;;20.20;5.35;;;;;;;14.15;50.82;100929.78;5053657;28;20048;-77
2022/04/12 08:30:41;;;;;;;11.27;4.53;;;;;;;14.28;48.32;100924.88;5036012;28;20136;-77
2022/04/12 08:33:06;;;;;;;9.05;4.25;;;;;;;14.35;48.03;100927.25;5053617;28;20029;-77
2022/04/12 08:35:32;;;;;;;7.55;3.50;;;;;;;14.44;48.38;100918.06;5050625;28;20068;-77
2022/04/12 08:37:57;;;;;;;5.47;3.60;;;;;;;14.55;46.92;100926.56;5044259;28;20037;-77
2022/04/12 08:40:23;;;;;;;6.45;3.72;;;;;;;14.67;46.95;100927.91;5031952;28;20048;-77
2022/04/12 08:42:48;;;;;;;8.88;3.90;;;;;;;14.73;47.20;100932.13;5045202;28;20052;-78
2022/04/12 08:45:14;;;;;;;14.20;4.57;;;;;;;14.86;46.46;100924.53;5053011;28;20396;-77
2022/04/12 08:47:41;;;;;;;9.60;4.20;;;;;;;15.06;47.19;100922.00;5053091;28;20053;-78
2022/04/12 08:50:08;;;;;;;7.72;3.92;;;;;;;15.20;46.43;100908.09;5052849;28;20181;-78
2022/04/12 08:52:36;;;;;;;10.27;4.25;;;;;;;15.29;46.20;100897.06;5053111;28;20029;-78
2022/04/12 08:55:02;;;;;;;7.68;3.53;;;;;;;15.36;45.54;100890.53;5039368;28;20381;-78
2022/04/12 08:57:29;;;;;;;10.80;3.83;;;;;;;15.53;46.60;100894.28;5030788;28;20044;-77
2022/04/12 08:59:54;;;;;;;11.18;4.47;;;;;;;15.67;45.13;100892.78;5032887;28;20094;-78
2022/04/12 09:02:20;;;;;;;11.98;4.07;;;;;;;15.76;44.89;100883.56;5032629;28;20149;-78
2022/04/12 09:04:45;;;;;;;9.60;3.58;;;;;;;15.84;44.50;100884.09;5033039;28;20029;-78
2022/04/12 09:07:12;;;;;;;12.15;4.00;;;;;;;15.91;44.88;100884.69;5014805;28;20041;-80
2022/04/12 09:09:40;;;;;;;13.70;4.28;;;;;;;16.01;44.61;100877.16;5014040;28;20397;-80
2022/04/12 09:12:09;;;;;;;7.30;3.50;;;;;;;16.21;44.66;100889.63;5031041;28;20462;-80
2022/04/12 09:14:52;;;;;;;14.98;3.92;;;;;;;16.28;44.20;100888.44;5032319;28;20037;-81
2022/04/12 09:17:35;;;;;;;6.70;3.42;;;;;;;16.33;43.51;100892.63;5032346;28;20056;-81
2022/04/12 09:20:13;;;;;;;9.50;3.80;;;;;;;16.43;43.61;100881.53;5032034;28;20120;-80
2022/04/12 09:22:39;;;;;;;8.88;3.60;;;;;;;16.55;43.22;100878.28;5030867;28;20568;-81
2022/04/12 09:25:07;;;;;;;15.18;3.88;;;;;;;16.70;42.91;100877.56;5014212;28;20179;-81
2022/04/12 09:27:34;;;;;;;10.40;3.90;;;;;;;16.75;42.54;100864.84;5030942;28;20075;-81
2022/04/12 09:30:01;;;;;;;8.10;3.38;;;;;;;16.83;43.47;100866.31;4998087;28;20219;-81
2022/04/12 09:32:29;;;;;;;9.43;3.70;;;;;;;16.94;44.03;100862.22;5032244;28;20032;-82
2022/04/12 09:34:56;;;;;;;7.95;3.95;;;;;;;17.09;43.70;100849.03;5031850;28;20091;-81
2022/04/12 09:37:27;;;;;;;6.20;3.08;;;;;;;17.21;42.74;100848.44;5014848;28;20037;-81
2022/04/12 09:39:54;;;;;;;9.52;3.55;;;;;;;17.35;41.96;100845.06;5050415;28;20086;-81
2022/04/12 09:42:38;;;;;;;6.00;3.58;;;;;;;17.57;43.40;100852.88;5043326;28;20040;-81
2022/04/12 09:45:06;;;;;;;9.95;3.45;;;;;;;17.70;42.08;100851.28;5012480;28;20129;-81
2022/04/12 09:47:32;;;;;;;12.15;3.70;;;;;;;17.76;41.98;100852.81;5013825;28;20095;-81
2022/04/12 09:49:59;;;;;;;9.98;3.70;;;;;;;17.76;40.98;100850.13;5030598;28;20136;-81
2022/04/12 09:52:24;;;;;;;11.43;3.95;;;;;;;17.86;41.56;100848.72;5030331;28;20033;-81
2022/04/12 09:54:51;;;;;;;10.32;3.58;;;;;;;18.03;41.28;100853.22;5042477;28;20119;-81
2022/04/12 09:57:17;;;;;;;8.52;3.45;;;;;;;18.23;41.00;100849.47;5050438;28;20437;-81
2022/04/12 09:59:44;;;;;;;4.43;3.28;;;;;;;18.33;40.42;100856.06;5033528;28;20090;-81
2022/04/12 10:02:11;;;;;;;9.38;3.30;;;;;;;18.46;39.93;100856.25;5051587;28;20029;-81
2022/04/12 10:04:38;;;;;;;5.80;3.10;;;;;;;18.53;40.03;100863.03;5051499;28;20021;-81
2022/04/12 10:07:05;;;;;;;13.65;2.97;;;;;;;18.58;39.31;100860.09;5051477;28;20401;-81
2022/04/12 10:09:35;;;;;;;9.05;3.10;;;;;;;18.73;39.88;100858.38;5033405;28;20215;-81
2022/04/12 10:12:01;;;;;;;8.50;3.40;;;;;;;18.90;39.74;100852.97;5051411;28;20035;-81
2022/04/12 10:14:27;;;;;;;8.00;3.33;;;;;;;18.95;39.00;100852.72;5044204;28;20303;-81
2022/04/12 10:16:56;;;;;;;14.07;3.88;;;;;;;18.91;39.21;100843.94;5031380;28;20033;-81
2022/04/12 10:19:22;;;;;;;6.97;3.20;;;;;;;18.86;39.06;100837.97;5030151;28;20176;-81
2022/04/12 10:21:47;;;;;;;6.13;3.30;;;;;;;18.90;39.73;100827.00;5029860;28;20059;-81
2022/04/12 10:24:15;;;;;;;6.18;3.17;;;;;;;19.00;39.30;100818.44;5029968;28;20029;-81
2022/04/12 10:26:44;;;;;;;7.65;3.28;;;;;;;19.20;39.06;100814.59;5013626;28;20079;-81
2022/04/12 10:29:09;;;;;;;6.55;3.22;;;;;;;19.33;38.62;100804.84;5029710;28;20026;-81
2022/04/12 10:31:35;;;;;;;6.15;3.42;;;;;;;19.31;38.83;100813.00;5031111;28;20033;-81
2022/04/12 10:34:01;;;;;;;4.82;3.15;;;;;;;19.24;38.50;100814.31;5029466;28;20045;-81
2022/04/12 10:36:55;;;;;;;10.48;3.50;;;;;;;19.34;39.94;100807.47;5034239;28;20139;-81
2022/04/12 10:39:29;;;;;;;7.60;3.60;;;;;;;19.30;39.07;100813.09;5046587;28;20041;-81
2022/04/12 10:41:56;;;;;;;8.55;3.40;;;;;;;19.17;39.38;100807.59;5045627;28;20036;-81
2022/04/12 10:44:23;;;;;;;9.10;3.20;;;;;;;19.30;38.54;100807.72;5012670;28;20087;-81
2022/04/12 10:46:53;;;;;;;5.18;3.28;;;;;;;19.38;39.00;100801.91;5012970;28;20045;-81
2022/04/12 10:49:21;;;;;;;9.32;3.50;;;;;;;19.28;39.40;100809.63;5029142;28;20068;-81
2022/04/12 10:51:56;;;;;;;6.20;3.20;;;;;;;19.26;39.48;100803.47;5030562;28;20102;-81
2022/04/12 10:54:33;;;;;;;8.23;3.47;;;;;;;19.25;39.60;100799.06;5037688;28;20036;-81
2022/04/12 10:57:21;;;;;;;7.57;3.95;;;;;;;19.50;39.99;100791.28;5032618;28;20417;-81
2022/04/12 11:00:10;;;;;;;11.48;3.20;;;;;;;19.85;39.35;100788.31;5049121;28;20063;-81
2022/04/12 11:02:39;;;;;;;10.88;3.75;;;;;;;19.86;38.74;100783.81;5050098;28;20037;-81
2022/04/12 11:05:07;;;;;;;9.52;3.60;;;;;;;19.97;38.68;100782.19;5048747;28;20045;-82
2022/04/12 11:07:35;;;;;;;9.77;3.78;;;;;;;19.87;37.75;100782.84;5036233;28;20115;-81
2022/04/12 11:10:13;;;;;;;8.82;3.25;;;;;;;19.72;38.87;100784.66;5049182;28;20106;-81
2022/04/12 11:12:43;;;;;;;7.93;3.00;;;;;;;19.64;38.12;100792.28;5049206;28;20103;-81
2022/04/12 11:15:29;;;;;;;9.07;3.15;;;;;;;19.67;39.13;100794.78;5038769;28;20030;-81
2022/04/12 11:18:46;;;;;;;8.73;3.38;;;;;;;19.64;38.80;100803.03;5028990;28;20034;-81
2022/04/12 11:21:11;;;;;;;10.50;3.38;;;;;;;19.84;39.05;100802.72;5021362;28;20049;-81
2022/04/12 11:24:09;;;;;;;10.75;3.78;;;;;;;20.14;38.94;100802.63;5045476;28;20112;-81
2022/04/12 11:26:37;;;;;;;11.80;4.05;;;;;;;20.25;37.91;100793.91;5046804;28;20045;-81
2022/04/12 11:29:11;;;;;;;8.45;3.50;;;;;;;20.22;38.31;100785.16;5031998;28;20044;-81